sensor_id;sensor_type;location;lat;lon;timestamp;pressure;altitude;pressure_sealevel;temperature;humidity
70916;BME280;58557;50.982;-3.222;2023-02-01T00:00:16;102091.55;;;7.48;52.63
70916;BME280;58557;50.982;-3.222;2023-02-01T00:02:41;102089.01;;;8.00;51.09
70916;BME280;58557;50.982;-3.222;2023-02-01T00:05:07;102085.69;;;6.96;52.47
70916;BME280;58557;50.982;-3.222;2023-02-01T00:07:32;102083.46;;;8.13;51.71
70916;BME280;58557;50.982;-3.222;2023-02-01T00:09:57;102077.85;;;7.65;52.28
70916;BME280;58557;50.982;-3.222;2023-02-01T00:12:22;102079.19;;;6.88;54.01
70916;BME280;58557;50.982;-3.222;2023-02-01T00:14:53;102089.09;;;7.41;52.36
70916;BME280;58557;50.982;-3.222;2023-02-01T00:17:14;102092.11;;;7.20;53.30
70916;BME280;58557;50.982;-3.222;2023-02-01T00:19:38;102091.78;;;7.58;53.02
70916;BME280;58557;50.982;-3.222;2023-02-01T00:22:08;102099.31;;;7.49;53.34
70916;BME280;58557;50.982;-3.222;2023-02-01T00:24:29;102103.81;;;7.27;52.90
70916;BME280;58557;50.982;-3.222;2023-02-01T00:26:54;102097.82;;;7.65;52.53
70916;BME280;58557;50.982;-3.222;2023-02-01T00:29:24;102087.69;;;8.53;50.01
70916;BME280;58557;50.982;-3.222;2023-02-01T00:31:44;102095.13;;;7.79;52.41
70916;BME280;58557;50.982;-3.222;2023-02-01T00:34:11;102094.13;;;7.54;51.97
70916;BME280;58557;50.982;-3.222;2023-02-01T00:36:35;102089.75;;;7.12;53.81
70916;BME280;58557;50.982;-3.222;2023-02-01T00:39:00;102088.28;;;7.51;52.41
70916;BME280;58557;50.982;-3.222;2023-02-01T00:41:26;102085.89;;;6.81;53.36
70916;BME280;58557;50.982;-3.222;2023-02-01T00:43:51;102086.19;;;7.98;52.62
70916;BME280;58557;50.982;-3.222;2023-02-01T00:46:21;102095.96;;;7.86;53.13
70916;BME280;58557;50.982;-3.222;2023-02-01T00:48:47;102106.09;;;6.80;53.48
70916;BME280;58557;50.982;-3.222;2023-02-01T00:51:13;102095.80;;;8.59;51.17
70916;BME280;58557;50.982;-3.222;2023-02-01T00:53:33;102092.29;;;8.95;49.06
70916;BME280;58557;50.982;-3.222;2023-02-01T00:56:03;102096.66;;;7.96;51.13
70916;BME280;58557;50.982;-3.222;2023-02-01T00:58:22;102092.88;;;7.11;52.85
70916;BME280;58557;50.982;-3.222;2023-02-01T01:00:47;102083.52;;;6.11;54.97
70916;BME280;58557;50.982;-3.222;2023-02-01T01:03:13;102076.58;;;7.78;52.09
70916;BME280;58557;50.982;-3.222;2023-02-01T01:05:38;102074.65;;;7.19;53.64
70916;BME280;58557;50.982;-3.222;2023-02-01T01:08:05;102075.45;;;7.26;53.49
70916;BME280;58557;50.982;-3.222;2023-02-01T01:10:34;102076.33;;;8.10;51.71
70916;BME280;58557;50.982;-3.222;2023-02-01T01:12:59;102082.21;;;8.04;50.89
70916;BME280;58557;50.982;-3.222;2023-02-01T01:15:25;102086.62;;;8.80;49.02
70916;BME280;58557;50.982;-3.222;2023-02-01T01:17:45;102078.92;;;8.28;50.72
70916;BME280;58557;50.982;-3.222;2023-02-01T01:20:16;102075.47;;;8.35;50.29
70916;BME280;58557;50.982;-3.222;2023-02-01T01:22:41;102081.67;;;7.99;51.43
70916;BME280;58557;50.982;-3.222;2023-02-01T01:25:01;102069.31;;;8.41;51.50
70916;BME280;58557;50.982;-3.222;2023-02-01T01:27:27;102071.07;;;9.14;49.36
70916;BME280;58557;50.982;-3.222;2023-02-01T01:29:53;102067.92;;;8.98;48.88
70916;BME280;58557;50.982;-3.222;2023-02-01T01:32:22;102071.27;;;6.96;54.07
70916;BME280;58557;50.982;-3.222;2023-02-01T01:34:43;102068.84;;;8.21;52.81
70916;BME280;58557;50.982;-3.222;2023-02-01T01:37:13;102063.73;;;8.22;52.27
70916;BME280;58557;50.982;-3.222;2023-02-01T01:39:33;102069.35;;;7.39;53.41
70916;BME280;58557;50.982;-3.222;2023-02-01T01:41:59;102067.07;;;8.15;51.53
70916;BME280;58557;50.982;-3.222;2023-02-01T01:46:50;102062.10;;;7.74;52.93
70916;BME280;58557;50.982;-3.222;2023-02-01T01:49:19;102066.18;;;7.82;52.90
70916;BME280;58557;50.982;-3.222;2023-02-01T01:51:43;102067.95;;;8.11;53.25
70916;BME280;58557;50.982;-3.222;2023-02-01T01:54:14;102069.60;;;7.76;52.45
70916;BME280;58557;50.982;-3.222;2023-02-01T01:56:32;102065.70;;;8.83;50.00
70916;BME280;58557;50.982;-3.222;2023-02-01T01:58:56;102054.83;;;8.98;49.02
70916;BME280;58557;50.982;-3.222;2023-02-01T02:01:22;102058.23;;;8.78;48.96
70916;BME280;58557;50.982;-3.222;2023-02-01T02:03:47;102055.89;;;8.30;51.15
70916;BME280;58557;50.982;-3.222;2023-02-01T02:06:23;102055.48;;;7.50;52.36
70916;BME280;58557;50.982;-3.222;2023-02-01T02:08:38;102063.33;;;7.15;54.21
70916;BME280;58557;50.982;-3.222;2023-02-01T02:11:04;102069.67;;;7.05;56.17
70916;BME280;58557;50.982;-3.222;2023-02-01T02:13:32;102071.11;;;7.27;55.77
70916;BME280;58557;50.982;-3.222;2023-02-01T02:16:05;102068.09;;;7.40;54.90
70916;BME280;58557;50.982;-3.222;2023-02-01T02:18:24;102065.63;;;7.38;55.02
70916;BME280;58557;50.982;-3.222;2023-02-01T02:23:25;102061.95;;;5.95;59.27
70916;BME280;58557;50.982;-3.222;2023-02-01T02:25:45;102066.80;;;6.62;58.39
70916;BME280;58557;50.982;-3.222;2023-02-01T02:28:07;102067.14;;;5.87;59.16
70916;BME280;58557;50.982;-3.222;2023-02-01T02:30:48;102067.24;;;6.28;59.19
70916;BME280;58557;50.982;-3.222;2023-02-01T02:35:24;102059.14;;;6.52;59.20
70916;BME280;58557;50.982;-3.222;2023-02-01T02:37:45;102060.52;;;6.61;58.84
70916;BME280;58557;50.982;-3.222;2023-02-01T02:40:13;102055.96;;;6.30;57.19
70916;BME280;58557;50.982;-3.222;2023-02-01T02:42:41;102064.66;;;8.06;54.12
70916;BME280;58557;50.982;-3.222;2023-02-01T02:45:03;102059.08;;;8.04;53.52
70916;BME280;58557;50.982;-3.222;2023-02-01T02:47:34;102067.43;;;7.11;56.10
70916;BME280;58557;50.982;-3.222;2023-02-01T02:49:52;102067.21;;;7.06;55.22
70916;BME280;58557;50.982;-3.222;2023-02-01T02:52:21;102066.43;;;7.18;55.92
70916;BME280;58557;50.982;-3.222;2023-02-01T02:54:47;102061.58;;;5.93;57.46
70916;BME280;58557;50.982;-3.222;2023-02-01T02:57:09;102063.24;;;7.95;52.70
70916;BME280;58557;50.982;-3.222;2023-02-01T02:59:31;102061.04;;;6.66;55.07
70916;BME280;58557;50.982;-3.222;2023-02-01T03:01:55;102065.61;;;6.47;56.90
70916;BME280;58557;50.982;-3.222;2023-02-01T03:04:21;102069.38;;;6.17;57.34
70916;BME280;58557;50.982;-3.222;2023-02-01T03:06:52;102075.94;;;7.10;54.89
70916;BME280;58557;50.982;-3.222;2023-02-01T03:09:17;102075.90;;;7.06;56.01
70916;BME280;58557;50.982;-3.222;2023-02-01T03:11:37;102077.37;;;7.79;53.49
70916;BME280;58557;50.982;-3.222;2023-02-01T03:14:02;102086.28;;;7.19;54.64
70916;BME280;58557;50.982;-3.222;2023-02-01T03:16:32;102085.76;;;6.78;55.86
70916;BME280;58557;50.982;-3.222;2023-02-01T03:18:55;102088.92;;;6.89;55.53
70916;BME280;58557;50.982;-3.222;2023-02-01T03:21:25;102089.88;;;6.79;55.90
70916;BME280;58557;50.982;-3.222;2023-02-01T03:23:44;102088.67;;;7.81;53.25
70916;BME280;58557;50.982;-3.222;2023-02-01T03:26:13;102087.49;;;6.51;56.72
70916;BME280;58557;50.982;-3.222;2023-02-01T03:28:45;102089.53;;;7.39;55.29
70916;BME280;58557;50.982;-3.222;2023-02-01T03:31:00;102086.02;;;6.70;55.62
70916;BME280;58557;50.982;-3.222;2023-02-01T03:33:26;102082.92;;;6.86;56.92
70916;BME280;58557;50.982;-3.222;2023-02-01T03:35:57;102076.06;;;7.03;55.26
70916;BME280;58557;50.982;-3.222;2023-02-01T03:38:23;102070.73;;;7.65;54.94
70916;BME280;58557;50.982;-3.222;2023-02-01T03:40:43;102068.52;;;7.85;53.72
70916;BME280;58557;50.982;-3.222;2023-02-01T03:43:11;102065.86;;;6.89;54.83
70916;BME280;58557;50.982;-3.222;2023-02-01T03:45:37;102066.68;;;7.23;55.36
70916;BME280;58557;50.982;-3.222;2023-02-01T03:48:00;102056.72;;;6.20;56.31
70916;BME280;58557;50.982;-3.222;2023-02-01T03:50:29;102058.81;;;6.04;58.48
70916;BME280;58557;50.982;-3.222;2023-02-01T03:52:53;102062.04;;;5.79;59.94
70916;BME280;58557;50.982;-3.222;2023-02-01T03:55:16;102056.33;;;7.05;57.04
70916;BME280;58557;50.982;-3.222;2023-02-01T03:57:43;102062.42;;;7.34;56.22
70916;BME280;58557;50.982;-3.222;2023-02-01T04:00:06;102066.12;;;6.06;58.34
70916;BME280;58557;50.982;-3.222;2023-02-01T04:02:29;102063.68;;;5.61;60.58
70916;BME280;58557;50.982;-3.222;2023-02-01T04:04:55;102060.72;;;6.86;57.47
70916;BME280;58557;50.982;-3.222;2023-02-01T04:07:20;102064.38;;;6.59;56.86
70916;BME280;58557;50.982;-3.222;2023-02-01T04:09:45;102070.96;;;7.16;55.81
70916;BME280;58557;50.982;-3.222;2023-02-01T04:12:10;102075.66;;;7.49;54.64
70916;BME280;58557;50.982;-3.222;2023-02-01T04:14:40;102076.14;;;7.45;54.38
70916;BME280;58557;50.982;-3.222;2023-02-01T04:17:01;102077.61;;;6.79;55.19
70916;BME280;58557;50.982;-3.222;2023-02-01T04:19:32;102073.99;;;7.17;54.98
70916;BME280;58557;50.982;-3.222;2023-02-01T04:21:52;102083.58;;;7.21;54.56
70916;BME280;58557;50.982;-3.222;2023-02-01T04:24:22;102073.51;;;6.24;58.34
70916;BME280;58557;50.982;-3.222;2023-02-01T04:26:47;102073.06;;;7.15;54.81
70916;BME280;58557;50.982;-3.222;2023-02-01T04:29:09;102065.26;;;7.83;53.10
70916;BME280;58557;50.982;-3.222;2023-02-01T04:31:34;102067.80;;;7.08;53.83
70916;BME280;58557;50.982;-3.222;2023-02-01T04:34:04;102065.35;;;7.71;52.81
70916;BME280;58557;50.982;-3.222;2023-02-01T04:36:24;102061.96;;;7.87;51.64
70916;BME280;58557;50.982;-3.222;2023-02-01T04:38:50;102057.15;;;8.36;51.41
70916;BME280;58557;50.982;-3.222;2023-02-01T04:41:20;102055.28;;;7.41;51.49
70916;BME280;58557;50.982;-3.222;2023-02-01T04:43:45;102058.36;;;7.84;51.55
70916;BME280;58557;50.982;-3.222;2023-02-01T04:46:06;102068.67;;;7.29;52.55
70916;BME280;58557;50.982;-3.222;2023-02-01T04:48:34;102067.98;;;7.25;53.15
70916;BME280;58557;50.982;-3.222;2023-02-01T04:50:56;102067.29;;;7.94;51.67
70916;BME280;58557;50.982;-3.222;2023-02-01T04:53:27;102072.54;;;8.38;51.18
70916;BME280;58557;50.982;-3.222;2023-02-01T04:55:49;102078.01;;;7.16;53.71
70916;BME280;58557;50.982;-3.222;2023-02-01T04:58:13;102083.95;;;6.98;54.58
70916;BME280;58557;50.982;-3.222;2023-02-01T05:00:39;102091.07;;;7.03;54.05
70916;BME280;58557;50.982;-3.222;2023-02-01T05:03:04;102100.37;;;8.00;51.42
70916;BME280;58557;50.982;-3.222;2023-02-01T05:05:30;102100.75;;;6.92;53.39
70916;BME280;58557;50.982;-3.222;2023-02-01T05:07:55;102097.55;;;6.90;53.81
70916;BME280;58557;50.982;-3.222;2023-02-01T05:10:26;102098.15;;;7.91;51.96
70916;BME280;58557;50.982;-3.222;2023-02-01T05:12:46;102090.75;;;6.91;53.88
70916;BME280;58557;50.982;-3.222;2023-02-01T05:15:14;102090.89;;;7.76;53.03
70916;BME280;58557;50.982;-3.222;2023-02-01T05:17:37;102089.17;;;6.84;54.38
70916;BME280;58557;50.982;-3.222;2023-02-01T05:20:05;102087.18;;;6.48;56.48
70916;BME280;58557;50.982;-3.222;2023-02-01T05:22:33;102076.51;;;7.03;55.17
70916;BME280;58557;50.982;-3.222;2023-02-01T05:24:53;102073.78;;;7.34;55.33
70916;BME280;58557;50.982;-3.222;2023-02-01T05:27:18;102068.68;;;7.70;54.05
70916;BME280;58557;50.982;-3.222;2023-02-01T05:29:43;102055.14;;;8.04;53.07
70916;BME280;58557;50.982;-3.222;2023-02-01T05:32:14;102043.69;;;8.18;52.21
70916;BME280;58557;50.982;-3.222;2023-02-01T05:34:39;102045.95;;;8.84;52.22
70916;BME280;58557;50.982;-3.222;2023-02-01T05:37:05;102041.26;;;8.65;50.90
70916;BME280;58557;50.982;-3.222;2023-02-01T05:39:25;102043.91;;;7.04;54.54
70916;BME280;58557;50.982;-3.222;2023-02-01T05:41:55;102038.66;;;8.48;51.41
70916;BME280;58557;50.982;-3.222;2023-02-01T05:44:21;102041.62;;;7.75;54.34
70916;BME280;58557;50.982;-3.222;2023-02-01T05:46:46;102029.42;;;8.43;53.18
70916;BME280;58557;50.982;-3.222;2023-02-01T05:49:06;102030.89;;;7.27;54.19
70916;BME280;58557;50.982;-3.222;2023-02-01T05:51:31;102039.05;;;8.09;53.82
70916;BME280;58557;50.982;-3.222;2023-02-01T05:54:02;102029.01;;;8.32;52.97
70916;BME280;58557;50.982;-3.222;2023-02-01T05:56:28;102032.98;;;7.85;53.92
70916;BME280;58557;50.982;-3.222;2023-02-01T05:58:49;102035.00;;;7.51;55.53
70916;BME280;58557;50.982;-3.222;2023-02-01T06:01:13;102037.16;;;7.51;56.23
70916;BME280;58557;50.982;-3.222;2023-02-01T06:03:38;102041.04;;;7.11;56.60
70916;BME280;58557;50.982;-3.222;2023-02-01T06:06:09;102041.61;;;7.33;56.18
70916;BME280;58557;50.982;-3.222;2023-02-01T06:08:29;102047.22;;;7.50;54.58
70916;BME280;58557;50.982;-3.222;2023-02-01T06:10:59;102052.86;;;7.14;56.71
70916;BME280;58557;50.982;-3.222;2023-02-01T06:13:19;102053.52;;;6.69;57.57
70916;BME280;58557;50.982;-3.222;2023-02-01T06:15:45;102047.25;;;6.45;59.75
70916;BME280;58557;50.982;-3.222;2023-02-01T06:18:11;102044.99;;;6.26;60.39
70916;BME280;58557;50.982;-3.222;2023-02-01T06:20:36;102036.81;;;6.65;60.06
70916;BME280;58557;50.982;-3.222;2023-02-01T06:23:02;102035.40;;;6.12;59.76
70916;BME280;58557;50.982;-3.222;2023-02-01T06:25:27;102037.30;;;7.33;56.90
70916;BME280;58557;50.982;-3.222;2023-02-01T06:28:00;102034.99;;;6.18;59.83
70916;BME280;58557;50.982;-3.222;2023-02-01T06:30:17;102039.55;;;6.75;59.51
70916;BME280;58557;50.982;-3.222;2023-02-01T06:32:42;102042.64;;;6.55;59.74
70916;BME280;58557;50.982;-3.222;2023-02-01T06:35:08;102043.56;;;5.97;62.72
70916;BME280;58557;50.982;-3.222;2023-02-01T06:37:32;102043.07;;;5.40;66.15
70916;BME280;58557;50.982;-3.222;2023-02-01T06:40:04;102048.18;;;5.48;65.22
70916;BME280;58557;50.982;-3.222;2023-02-01T06:42:23;102045.51;;;5.25;66.01
70916;BME280;58557;50.982;-3.222;2023-02-01T06:44:48;102040.39;;;5.11;66.43
70916;BME280;58557;50.982;-3.222;2023-02-01T06:47:19;102043.88;;;5.68;64.48
70916;BME280;58557;50.982;-3.222;2023-02-01T06:49:39;102038.30;;;7.08;60.65
70916;BME280;58557;50.982;-3.222;2023-02-01T06:52:05;102039.69;;;6.75;61.18
70916;BME280;58557;50.982;-3.222;2023-02-01T06:54:36;102055.11;;;7.35;59.73
70916;BME280;58557;50.982;-3.222;2023-02-01T06:56:56;102054.29;;;6.78;60.94
70916;BME280;58557;50.982;-3.222;2023-02-01T06:59:22;102056.10;;;6.22;61.50
70916;BME280;58557;50.982;-3.222;2023-02-01T07:01:46;102060.11;;;7.23;59.48
70916;BME280;58557;50.982;-3.222;2023-02-01T07:04:12;102062.79;;;6.10;62.65
70916;BME280;58557;50.982;-3.222;2023-02-01T07:06:43;102066.80;;;7.03;58.58
70916;BME280;58557;50.982;-3.222;2023-02-01T07:09:03;102065.91;;;6.88;60.15
70916;BME280;58557;50.982;-3.222;2023-02-01T07:11:29;102068.59;;;6.80;59.68
70916;BME280;58557;50.982;-3.222;2023-02-01T07:13:54;102069.69;;;7.05;58.49
70916;BME280;58557;50.982;-3.222;2023-02-01T07:16:20;102060.98;;;7.16;58.94
70916;BME280;58557;50.982;-3.222;2023-02-01T07:18:50;102063.57;;;8.06;56.64
70916;BME280;58557;50.982;-3.222;2023-02-01T07:21:14;102062.93;;;6.99;58.35
70916;BME280;58557;50.982;-3.222;2023-02-01T07:23:34;102058.10;;;5.86;61.48
70916;BME280;58557;50.982;-3.222;2023-02-01T07:26:01;102058.27;;;7.05;59.36
70916;BME280;58557;50.982;-3.222;2023-02-01T07:28:32;102054.94;;;7.24;59.41
70916;BME280;58557;50.982;-3.222;2023-02-01T07:30:51;102059.63;;;7.76;58.00
70916;BME280;58557;50.982;-3.222;2023-02-01T07:33:17;102059.58;;;6.99;59.47
70916;BME280;58557;50.982;-3.222;2023-02-01T07:35:46;102056.51;;;6.14;61.58
70916;BME280;58557;50.982;-3.222;2023-02-01T07:38:07;102044.84;;;7.13;58.89
70916;BME280;58557;50.982;-3.222;2023-02-01T07:40:32;102043.12;;;6.74;60.79
70916;BME280;58557;50.982;-3.222;2023-02-01T07:43:02;102039.21;;;7.01;59.68
70916;BME280;58557;50.982;-3.222;2023-02-01T07:45:24;102038.89;;;7.74;57.99
70916;BME280;58557;50.982;-3.222;2023-02-01T07:47:50;102039.90;;;7.63;59.27
70916;BME280;58557;50.982;-3.222;2023-02-01T07:50:13;102041.82;;;6.59;60.87
70916;BME280;58557;50.982;-3.222;2023-02-01T07:52:44;102037.32;;;6.33;61.67
70916;BME280;58557;50.982;-3.222;2023-02-01T07:55:09;102036.41;;;7.37;59.41
70916;BME280;58557;50.982;-3.222;2023-02-01T07:57:35;102036.41;;;7.48;59.65
70916;BME280;58557;50.982;-3.222;2023-02-01T08:00:00;102025.40;;;7.66;59.64
70916;BME280;58557;50.982;-3.222;2023-02-01T08:02:20;102028.57;;;7.20;59.68
70916;BME280;58557;50.982;-3.222;2023-02-01T08:04:46;102030.74;;;6.98;60.66
70916;BME280;58557;50.982;-3.222;2023-02-01T08:07:16;102036.03;;;6.18;64.57
70916;BME280;58557;50.982;-3.222;2023-02-01T08:09:36;102040.82;;;6.71;62.43
70916;BME280;58557;50.982;-3.222;2023-02-01T08:12:02;102044.32;;;6.47;63.26
70916;BME280;58557;50.982;-3.222;2023-02-01T08:14:27;102042.49;;;6.62;63.18
70916;BME280;58557;50.982;-3.222;2023-02-01T08:16:53;102056.38;;;5.84;66.38
70916;BME280;58557;50.982;-3.222;2023-02-01T08:19:23;102076.77;;;6.05;66.15
70916;BME280;58557;50.982;-3.222;2023-02-01T08:21:44;102089.57;;;5.69;67.94
70916;BME280;58557;50.982;-3.222;2023-02-01T08:24:10;102094.19;;;6.53;65.76
70916;BME280;58557;50.982;-3.222;2023-02-01T08:26:35;102082.18;;;6.85;64.00
70916;BME280;58557;50.982;-3.222;2023-02-01T08:29:06;102081.03;;;6.54;64.56
70916;BME280;58557;50.982;-3.222;2023-02-01T08:31:28;102069.72;;;6.02;66.93
70916;BME280;58557;50.982;-3.222;2023-02-01T08:33:52;102069.34;;;6.15;66.14
70916;BME280;58557;50.982;-3.222;2023-02-01T08:36:22;102070.71;;;6.67;64.10
70916;BME280;58557;50.982;-3.222;2023-02-01T08:38:46;102077.49;;;6.40;65.08
70916;BME280;58557;50.982;-3.222;2023-02-01T08:41:13;102083.36;;;6.82;64.30
70916;BME280;58557;50.982;-3.222;2023-02-01T08:43:32;102085.99;;;7.60;59.89
70916;BME280;58557;50.982;-3.222;2023-02-01T08:45:57;102078.82;;;8.40;58.85
70916;BME280;58557;50.982;-3.222;2023-02-01T08:48:24;102073.18;;;8.02;58.56
70916;BME280;58557;50.982;-3.222;2023-02-01T08:50:52;102079.39;;;8.23;58.34
70916;BME280;58557;50.982;-3.222;2023-02-01T08:53:18;102069.00;;;8.57;57.16
70916;BME280;58557;50.982;-3.222;2023-02-01T08:55:45;102081.98;;;8.11;59.34
70916;BME280;58557;50.982;-3.222;2023-02-01T08:58:08;102090.45;;;7.88;59.50
70916;BME280;58557;50.982;-3.222;2023-02-01T09:00:29;102090.88;;;8.56;57.56
70916;BME280;58557;50.982;-3.222;2023-02-01T09:02:55;102081.84;;;8.33;56.71
70916;BME280;58557;50.982;-3.222;2023-02-01T09:05:19;102090.54;;;7.83;58.54
70916;BME280;58557;50.982;-3.222;2023-02-01T09:07:50;102091.98;;;7.89;58.28
70916;BME280;58557;50.982;-3.222;2023-02-01T09:10:11;102090.46;;;8.91;56.04
70916;BME280;58557;50.982;-3.222;2023-02-01T09:12:36;102095.57;;;7.83;58.51
70916;BME280;58557;50.982;-3.222;2023-02-01T09:15:03;102101.74;;;7.39;60.56
70916;BME280;58557;50.982;-3.222;2023-02-01T09:17:29;102103.20;;;8.01;59.10
70916;BME280;58557;50.982;-3.222;2023-02-01T09:19:53;102110.39;;;7.65;59.33
70916;BME280;58557;50.982;-3.222;2023-02-01T09:22:19;102113.09;;;7.21;61.67
70916;BME280;58557;50.982;-3.222;2023-02-01T09:24:49;102114.42;;;7.72;59.27
70916;BME280;58557;50.982;-3.222;2023-02-01T09:27:09;102120.38;;;7.64;59.96
70916;BME280;58557;50.982;-3.222;2023-02-01T09:29:34;102111.68;;;8.56;58.16
70916;BME280;58557;50.982;-3.222;2023-02-01T09:31:59;102108.79;;;8.20;59.96
70916;BME280;58557;50.982;-3.222;2023-02-01T09:34:25;102107.29;;;7.68;62.11
70916;BME280;58557;50.982;-3.222;2023-02-01T09:36:55;102097.75;;;7.75;62.06
70916;BME280;58557;50.982;-3.222;2023-02-01T09:39:16;102098.12;;;8.46;59.64
70916;BME280;58557;50.982;-3.222;2023-02-01T09:41:57;102100.11;;;9.21;56.57
70916;BME280;58557;50.982;-3.222;2023-02-01T09:44:18;102096.84;;;8.92;57.01
70916;BME280;58557;50.982;-3.222;2023-02-01T09:46:33;102089.16;;;8.48;58.06
70916;BME280;58557;50.982;-3.222;2023-02-01T09:49:00;102108.66;;;7.99;59.73
70916;BME280;58557;50.982;-3.222;2023-02-01T09:51:26;102119.39;;;7.98;60.38
70916;BME280;58557;50.982;-3.222;2023-02-01T09:53:56;102116.03;;;8.23;60.34
70916;BME280;58557;50.982;-3.222;2023-02-01T09:56:18;102112.53;;;7.30;61.82
70916;BME280;58557;50.982;-3.222;2023-02-01T09:58:43;102100.03;;;9.05;57.84
70916;BME280;58557;50.982;-3.222;2023-02-01T10:01:12;102093.36;;;8.91;57.58
70916;BME280;58557;50.982;-3.222;2023-02-01T10:03:33;102092.94;;;7.61;60.81
70916;BME280;58557;50.982;-3.222;2023-02-01T10:06:11;102093.40;;;8.63;58.40
70916;BME280;58557;50.982;-3.222;2023-02-01T10:08:27;102091.43;;;7.79;60.60
70916;BME280;58557;50.982;-3.222;2023-02-01T10:10:54;102090.95;;;8.79;59.14
70916;BME280;58557;50.982;-3.222;2023-02-01T10:13:26;102095.75;;;8.27;61.75
70916;BME280;58557;50.982;-3.222;2023-02-01T10:15:54;102095.53;;;9.06;58.05
70916;BME280;58557;50.982;-3.222;2023-02-01T10:18:22;102093.12;;;9.37;57.56
70916;BME280;58557;50.982;-3.222;2023-02-01T10:20:35;102093.92;;;9.03;59.75
70916;BME280;58557;50.982;-3.222;2023-02-01T10:23:07;102100.21;;;7.25;63.81
70916;BME280;58557;50.982;-3.222;2023-02-01T10:25:26;102102.47;;;8.89;59.72
70916;BME280;58557;50.982;-3.222;2023-02-01T10:27:46;102100.51;;;10.51;56.09
70916;BME280;58557;50.982;-3.222;2023-02-01T10:30:20;102100.71;;;9.25;58.56
70916;BME280;58557;50.982;-3.222;2023-02-01T10:32:39;102100.46;;;9.97;57.92
70916;BME280;58557;50.982;-3.222;2023-02-01T10:35:14;102101.40;;;9.62;56.89
70916;BME280;58557;50.982;-3.222;2023-02-01T10:37:30;102104.78;;;10.00;55.61
70916;BME280;58557;50.982;-3.222;2023-02-01T10:40:02;102104.34;;;10.13;55.53
70916;BME280;58557;50.982;-3.222;2023-02-01T10:42:23;102100.86;;;8.74;58.82
70916;BME280;58557;50.982;-3.222;2023-02-01T10:44:45;102104.80;;;9.24;59.54
70916;BME280;58557;50.982;-3.222;2023-02-01T10:47:10;102105.16;;;8.79;59.82
70916;BME280;58557;50.982;-3.222;2023-02-01T10:49:40;102111.68;;;8.54;62.37
70916;BME280;58557;50.982;-3.222;2023-02-01T10:52:07;102109.08;;;8.61;59.06
70916;BME280;58557;50.982;-3.222;2023-02-01T10:54:32;102123.50;;;8.07;62.25
70916;BME280;58557;50.982;-3.222;2023-02-01T10:56:52;102124.89;;;7.60;63.25
70916;BME280;58557;50.982;-3.222;2023-02-01T10:59:19;102120.45;;;7.41;64.42
70916;BME280;58557;50.982;-3.222;2023-02-01T11:01:45;102118.49;;;8.88;61.78
70916;BME280;58557;50.982;-3.222;2023-02-01T11:04:10;102117.11;;;7.79;62.70
70916;BME280;58557;50.982;-3.222;2023-02-01T11:06:40;102117.55;;;9.64;57.46
70916;BME280;58557;50.982;-3.222;2023-02-01T11:09:08;102117.04;;;9.08;57.89
70916;BME280;58557;50.982;-3.222;2023-02-01T11:11:30;102121.52;;;7.79;60.82
70916;BME280;58557;50.982;-3.222;2023-02-01T11:13:54;102118.50;;;7.99;59.98
70916;BME280;58557;50.982;-3.222;2023-02-01T11:16:16;102114.33;;;8.69;59.88
70916;BME280;58557;50.982;-3.222;2023-02-01T11:18:52;102115.70;;;9.60;57.52
70916;BME280;58557;50.982;-3.222;2023-02-01T11:21:09;102112.23;;;9.56;56.70
70916;BME280;58557;50.982;-3.222;2023-02-01T11:23:35;102119.76;;;8.35;59.57
70916;BME280;58557;50.982;-3.222;2023-02-01T11:26:10;102108.18;;;8.70;57.66
70916;BME280;58557;50.982;-3.222;2023-02-01T11:28:26;102113.80;;;9.12;57.02
70916;BME280;58557;50.982;-3.222;2023-02-01T11:30:50;102118.75;;;10.65;53.59
70916;BME280;58557;50.982;-3.222;2023-02-01T11:33:26;102117.53;;;8.06;58.55
70916;BME280;58557;50.982;-3.222;2023-02-01T11:35:47;102108.14;;;8.47;57.80
70916;BME280;58557;50.982;-3.222;2023-02-01T11:38:21;102116.03;;;9.22;57.57
70916;BME280;58557;50.982;-3.222;2023-02-01T11:40:36;102109.52;;;8.90;57.06
70916;BME280;58557;50.982;-3.222;2023-02-01T11:42:59;102118.31;;;9.23;55.47
70916;BME280;58557;50.982;-3.222;2023-02-01T11:45:27;102116.26;;;9.21;55.08
70916;BME280;58557;50.982;-3.222;2023-02-01T11:47:53;102113.94;;;8.43;57.82
70916;BME280;58557;50.982;-3.222;2023-02-01T11:50:29;102115.48;;;9.78;55.18
70916;BME280;58557;50.982;-3.222;2023-02-01T11:52:50;102116.13;;;9.61;55.15
70916;BME280;58557;50.982;-3.222;2023-02-01T11:55:16;102118.15;;;10.46;54.35
70916;BME280;58557;50.982;-3.222;2023-02-01T12:00:11;102121.39;;;9.19;56.50
70916;BME280;58557;50.982;-3.222;2023-02-01T12:02:39;102124.13;;;9.14;55.58
70916;BME280;58557;50.982;-3.222;2023-02-01T12:05:02;102120.75;;;10.53;53.71
70916;BME280;58557;50.982;-3.222;2023-02-01T12:07:18;102122.66;;;8.04;57.31
70916;BME280;58557;50.982;-3.222;2023-02-01T12:09:50;102120.62;;;10.21;52.75
70916;BME280;58557;50.982;-3.222;2023-02-01T12:12:13;102114.45;;;10.18;51.98
70916;BME280;58557;50.982;-3.222;2023-02-01T12:14:40;102119.14;;;9.20;55.48
70916;BME280;58557;50.982;-3.222;2023-02-01T12:17:11;102114.85;;;10.71;52.00
70916;BME280;58557;50.982;-3.222;2023-02-01T12:19:31;102114.96;;;10.46;52.76
70916;BME280;58557;50.982;-3.222;2023-02-01T12:21:58;102105.95;;;10.40;52.49
70916;BME280;58557;50.982;-3.222;2023-02-01T12:24:23;102095.29;;;9.17;56.05
70916;BME280;58557;50.982;-3.222;2023-02-01T12:26:50;102091.62;;;10.16;53.62
70916;BME280;58557;50.982;-3.222;2023-02-01T12:29:18;102082.93;;;9.41;56.22
70916;BME280;58557;50.982;-3.222;2023-02-01T12:31:45;102082.24;;;9.01;55.67
70916;BME280;58557;50.982;-3.222;2023-02-01T12:34:13;102080.23;;;9.54;55.19
70916;BME280;58557;50.982;-3.222;2023-02-01T12:36:28;102081.06;;;8.91;58.38
70916;BME280;58557;50.982;-3.222;2023-02-01T12:38:56;102082.03;;;9.33;57.11
70916;BME280;58557;50.982;-3.222;2023-02-01T12:41:26;102079.86;;;9.21;57.68
70916;BME280;58557;50.982;-3.222;2023-02-01T12:43:47;102083.18;;;9.79;56.43
70916;BME280;58557;50.982;-3.222;2023-02-01T12:46:07;102081.37;;;8.86;57.89
70916;BME280;58557;50.982;-3.222;2023-02-01T12:48:34;102078.61;;;9.20;56.64